sensor_id;sensor_type;location;lat;lon;timestamp;P1;durP1;ratioP1;P2;durP2;ratioP2
5539;SDS011;2792;52.452;9.752;2023-07-29T00:02:16;4.40;;;4.00;;
5539;SDS011;2792;52.452;9.752;2023-07-29T00:04:42;3.80;;;3.50;;
5539;SDS011;2792;52.452;9.752;2023-07-29T00:07:09;6.00;;;4.07;;
5539;SDS011;2792;52.452;9.752;2023-07-29T00:09:35;3.93;;;3.63;;
5539;SDS011;2792;52.452;9.752;2023-07-29T00:12:03;3.87;;;3.57;;
5539;SDS011;2792;52.452;9.752;2023-07-29T00:14:31;4.10;;;3.80;;
5539;SDS011;2792;52.452;9.752;2023-07-29T00:16:58;4.37;;;3.97;;
5539;SDS011;2792;52.452;9.752;2023-07-29T00:19:24;4.47;;;4.07;;
5539;SDS011;2792;52.452;9.752;2023-07-29T00:21:51;8.30;;;4.10;;
5539;SDS011;2792;52.452;9.752;2023-07-29T00:24:18;5.17;;;4.70;;
5539;SDS011;2792;52.452;9.752;2023-07-29T00:26:44;4.83;;;4.33;;
5539;SDS011;2792;52.452;9.752;2023-07-29T00:29:11;5.20;;;4.73;;
5539;SDS011;2792;52.452;9.752;2023-07-29T00:31:38;5.50;;;4.70;;
5539;SDS011;2792;52.452;9.752;2023-07-29T00:34:05;6.17;;;5.57;;
5539;SDS011;2792;52.452;9.752;2023-07-29T00:36:31;5.53;;;5.03;;
5539;SDS011;2792;52.452;9.752;2023-07-29T00:38:58;5.00;;;4.53;;
5539;SDS011;2792;52.452;9.752;2023-07-29T00:41:24;4.97;;;4.30;;
5539;SDS011;2792;52.452;9.752;2023-07-29T00:43:51;4.10;;;3.80;;
5539;SDS011;2792;52.452;9.752;2023-07-29T00:46:17;5.73;;;4.40;;
5539;SDS011;2792;52.452;9.752;2023-07-29T00:48:46;4.00;;;3.70;;
5539;SDS011;2792;52.452;9.752;2023-07-29T00:51:12;4.30;;;3.90;;
5539;SDS011;2792;52.452;9.752;2023-07-29T00:53:39;4.40;;;4.00;;
5539;SDS011;2792;52.452;9.752;2023-07-29T00:56:05;4.03;;;3.73;;
5539;SDS011;2792;52.452;9.752;2023-07-29T00:58:32;5.63;;;4.03;;
5539;SDS011;2792;52.452;9.752;2023-07-29T01:00:59;4.47;;;3.17;;
5539;SDS011;2792;52.452;9.752;2023-07-29T01:03:26;4.27;;;3.87;;
5539;SDS011;2792;52.452;9.752;2023-07-29T01:05:59;3.93;;;3.63;;
5539;SDS011;2792;52.452;9.752;2023-07-29T01:08:33;4.00;;;3.70;;
5539;SDS011;2792;52.452;9.752;2023-07-29T01:11:11;4.00;;;3.70;;
5539;SDS011;2792;52.452;9.752;2023-07-29T01:13:45;4.50;;;3.80;;
5539;SDS011;2792;52.452;9.752;2023-07-29T01:16:19;3.60;;;3.30;;
5539;SDS011;2792;52.452;9.752;2023-07-29T01:18:47;4.23;;;3.83;;
5539;SDS011;2792;52.452;9.752;2023-07-29T01:21:16;7.33;;;3.87;;
5539;SDS011;2792;52.452;9.752;2023-07-29T01:23:44;4.50;;;3.50;;
5539;SDS011;2792;52.452;9.752;2023-07-29T01:26:11;4.10;;;3.70;;
5539;SDS011;2792;52.452;9.752;2023-07-29T01:28:38;4.00;;;3.60;;
5539;SDS011;2792;52.452;9.752;2023-07-29T01:31:06;3.50;;;3.30;;
5539;SDS011;2792;52.452;9.752;2023-07-29T01:33:39;3.80;;;3.40;;
5539;SDS011;2792;52.452;9.752;2023-07-29T01:36:11;6.50;;;3.93;;
5539;SDS011;2792;52.452;9.752;2023-07-29T01:38:41;4.10;;;3.77;;
5539;SDS011;2792;52.452;9.752;2023-07-29T01:41:09;4.10;;;3.00;;
5539;SDS011;2792;52.452;9.752;2023-07-29T01:43:36;3.80;;;3.27;;
5539;SDS011;2792;52.452;9.752;2023-07-29T01:46:08;3.37;;;3.07;;
5539;SDS011;2792;52.452;9.752;2023-07-29T01:48:35;3.23;;;2.93;;
5539;SDS011;2792;52.452;9.752;2023-07-29T01:51:02;2.87;;;2.67;;
5539;SDS011;2792;52.452;9.752;2023-07-29T01:53:29;3.77;;;3.47;;
5539;SDS011;2792;52.452;9.752;2023-07-29T01:55:55;3.30;;;2.60;;
5539;SDS011;2792;52.452;9.752;2023-07-29T01:58:24;2.63;;;2.43;;
5539;SDS011;2792;52.452;9.752;2023-07-29T02:00:50;2.67;;;2.47;;
5539;SDS011;2792;52.452;9.752;2023-07-29T02:03:17;2.80;;;2.60;;
5539;SDS011;2792;52.452;9.752;2023-07-29T02:05:44;3.30;;;2.23;;
5539;SDS011;2792;52.452;9.752;2023-07-29T02:08:10;2.83;;;2.40;;
5539;SDS011;2792;52.452;9.752;2023-07-29T02:10:37;2.70;;;2.50;;
5539;SDS011;2792;52.452;9.752;2023-07-29T02:13:04;3.70;;;2.80;;
5539;SDS011;2792;52.452;9.752;2023-07-29T02:15:31;5.00;;;2.60;;
5539;SDS011;2792;52.452;9.752;2023-07-29T02:17:58;3.30;;;2.40;;
5539;SDS011;2792;52.452;9.752;2023-07-29T02:20:27;2.97;;;2.70;;
5539;SDS011;2792;52.452;9.752;2023-07-29T02:22:53;2.70;;;2.50;;
5539;SDS011;2792;52.452;9.752;2023-07-29T02:25:20;5.23;;;2.93;;
5539;SDS011;2792;52.452;9.752;2023-07-29T02:27:46;2.73;;;2.40;;
5539;SDS011;2792;52.452;9.752;2023-07-29T02:30:13;2.20;;;2.10;;
5539;SDS011;2792;52.452;9.752;2023-07-29T02:32:40;2.70;;;2.50;;
5539;SDS011;2792;52.452;9.752;2023-07-29T02:35:07;2.90;;;2.60;;
5539;SDS011;2792;52.452;9.752;2023-07-29T02:37:35;4.67;;;2.70;;
5539;SDS011;2792;52.452;9.752;2023-07-29T02:40:01;2.67;;;2.47;;
5539;SDS011;2792;52.452;9.752;2023-07-29T02:42:28;2.33;;;2.20;;
5539;SDS011;2792;52.452;9.752;2023-07-29T02:44:55;2.50;;;2.30;;
5539;SDS011;2792;52.452;9.752;2023-07-29T02:47:22;3.43;;;2.47;;
5539;SDS011;2792;52.452;9.752;2023-07-29T02:49:50;3.20;;;2.87;;
5539;SDS011;2792;52.452;9.752;2023-07-29T02:52:16;2.87;;;2.67;;
5539;SDS011;2792;52.452;9.752;2023-07-29T02:54:43;2.73;;;2.53;;
5539;SDS011;2792;52.452;9.752;2023-07-29T02:57:09;2.50;;;2.40;;
5539;SDS011;2792;52.452;9.752;2023-07-29T02:59:35;4.60;;;2.53;;
5539;SDS011;2792;52.452;9.752;2023-07-29T03:02:02;2.50;;;2.30;;
5539;SDS011;2792;52.452;9.752;2023-07-29T03:04:29;2.90;;;2.50;;
5539;SDS011;2792;52.452;9.752;2023-07-29T03:06:57;2.33;;;2.13;;
5539;SDS011;2792;52.452;9.752;2023-07-29T03:09:24;2.67;;;2.47;;
5539;SDS011;2792;52.452;9.752;2023-07-29T03:11:51;2.70;;;2.50;;
5539;SDS011;2792;52.452;9.752;2023-07-29T03:14:19;2.83;;;2.30;;
5539;SDS011;2792;52.452;9.752;2023-07-29T03:16:46;3.20;;;2.30;;
5539;SDS011;2792;52.452;9.752;2023-07-29T03:19:13;2.80;;;2.60;;
5539;SDS011;2792;52.452;9.752;2023-07-29T03:21:39;2.80;;;2.53;;
5539;SDS011;2792;52.452;9.752;2023-07-29T03:24:07;2.60;;;2.40;;
5539;SDS011;2792;52.452;9.752;2023-07-29T03:26:33;4.90;;;2.10;;
5539;SDS011;2792;52.452;9.752;2023-07-29T03:29:00;2.80;;;2.50;;
5539;SDS011;2792;52.452;9.752;2023-07-29T03:31:26;2.93;;;2.50;;
5539;SDS011;2792;52.452;9.752;2023-07-29T03:33:53;2.67;;;2.47;;
5539;SDS011;2792;52.452;9.752;2023-07-29T03:36:20;4.80;;;2.60;;
5539;SDS011;2792;52.452;9.752;2023-07-29T03:38:47;2.20;;;2.00;;
5539;SDS011;2792;52.452;9.752;2023-07-29T03:41:15;2.83;;;2.63;;
5539;SDS011;2792;52.452;9.752;2023-07-29T03:43:41;7.77;;;2.50;;
5539;SDS011;2792;52.452;9.752;2023-07-29T03:46:07;4.23;;;2.20;;
5539;SDS011;2792;52.452;9.752;2023-07-29T03:48:34;2.47;;;2.27;;
5539;SDS011;2792;52.452;9.752;2023-07-29T03:51:01;2.67;;;2.47;;
5539;SDS011;2792;52.452;9.752;2023-07-29T03:53:28;3.00;;;2.57;;
5539;SDS011;2792;52.452;9.752;2023-07-29T03:55:54;3.20;;;2.47;;
5539;SDS011;2792;52.452;9.752;2023-07-29T03:58:22;2.33;;;2.13;;
5539;SDS011;2792;52.452;9.752;2023-07-29T04:00:49;2.70;;;2.50;;
5539;SDS011;2792;52.452;9.752;2023-07-29T04:03:15;3.20;;;2.60;;
5539;SDS011;2792;52.452;9.752;2023-07-29T04:05:42;3.50;;;2.20;;
5539;SDS011;2792;52.452;9.752;2023-07-29T04:08:08;2.80;;;2.30;;
5539;SDS011;2792;52.452;9.752;2023-07-29T04:10:35;2.23;;;1.90;;
5539;SDS011;2792;52.452;9.752;2023-07-29T04:13:02;4.20;;;2.33;;
5539;SDS011;2792;52.452;9.752;2023-07-29T04:15:31;2.20;;;2.10;;
5539;SDS011;2792;52.452;9.752;2023-07-29T04:17:57;2.27;;;2.10;;
5539;SDS011;2792;52.452;9.752;2023-07-29T04:20:24;2.60;;;2.40;;
5539;SDS011;2792;52.452;9.752;2023-07-29T04:22:50;2.17;;;2.07;;
5539;SDS011;2792;52.452;9.752;2023-07-29T04:25:17;2.47;;;2.20;;
5539;SDS011;2792;52.452;9.752;2023-07-29T04:27:43;2.97;;;2.10;;
5539;SDS011;2792;52.452;9.752;2023-07-29T04:30:10;2.10;;;2.00;;
5539;SDS011;2792;52.452;9.752;2023-07-29T04:32:38;2.67;;;2.07;;
5539;SDS011;2792;52.452;9.752;2023-07-29T04:35:05;2.53;;;2.33;;
5539;SDS011;2792;52.452;9.752;2023-07-29T04:37:32;5.53;;;1.93;;
5539;SDS011;2792;52.452;9.752;2023-07-29T04:39:58;2.70;;;2.50;;
5539;SDS011;2792;52.452;9.752;2023-07-29T04:42:25;5.30;;;2.23;;
5539;SDS011;2792;52.452;9.752;2023-07-29T04:44:51;2.20;;;2.10;;
5539;SDS011;2792;52.452;9.752;2023-07-29T04:47:18;2.40;;;2.20;;
5539;SDS011;2792;52.452;9.752;2023-07-29T04:49:46;3.13;;;2.10;;
5539;SDS011;2792;52.452;9.752;2023-07-29T04:52:12;3.33;;;2.27;;
5539;SDS011;2792;52.452;9.752;2023-07-29T04:54:39;3.10;;;2.70;;
5539;SDS011;2792;52.452;9.752;2023-07-29T04:57:06;2.60;;;2.40;;
5539;SDS011;2792;52.452;9.752;2023-07-29T04:59:32;2.67;;;2.47;;
5539;SDS011;2792;52.452;9.752;2023-07-29T05:01:58;2.27;;;2.17;;
5539;SDS011;2792;52.452;9.752;2023-07-29T05:04:25;2.40;;;2.20;;
5539;SDS011;2792;52.452;9.752;2023-07-29T05:06:52;2.77;;;2.57;;
5539;SDS011;2792;52.452;9.752;2023-07-29T05:09:19;2.93;;;2.50;;
5539;SDS011;2792;52.452;9.752;2023-07-29T05:11:46;2.50;;;2.30;;
5539;SDS011;2792;52.452;9.752;2023-07-29T05:14:14;4.70;;;2.77;;
5539;SDS011;2792;52.452;9.752;2023-07-29T05:16:41;4.50;;;2.90;;
5539;SDS011;2792;52.452;9.752;2023-07-29T05:19:08;3.90;;;2.80;;
5539;SDS011;2792;52.452;9.752;2023-07-29T05:21:34;3.53;;;2.83;;
5539;SDS011;2792;52.452;9.752;2023-07-29T05:24:02;2.80;;;2.60;;
5539;SDS011;2792;52.452;9.752;2023-07-29T05:26:29;3.00;;;2.80;;
5539;SDS011;2792;52.452;9.752;2023-07-29T05:28:56;3.43;;;3.13;;
5539;SDS011;2792;52.452;9.752;2023-07-29T05:31:22;3.63;;;3.20;;
5539;SDS011;2792;52.452;9.752;2023-07-29T05:33:49;3.80;;;2.80;;
5539;SDS011;2792;52.452;9.752;2023-07-29T05:36:15;3.13;;;2.93;;
5539;SDS011;2792;52.452;9.752;2023-07-29T05:38:42;3.10;;;2.90;;
5539;SDS011;2792;52.452;9.752;2023-07-29T05:41:09;3.10;;;2.90;;
5539;SDS011;2792;52.452;9.752;2023-07-29T05:43:36;3.83;;;3.27;;
5539;SDS011;2792;52.452;9.752;2023-07-29T05:46:03;3.17;;;2.87;;
5539;SDS011;2792;52.452;9.752;2023-07-29T05:48:29;4.20;;;3.20;;
5539;SDS011;2792;52.452;9.752;2023-07-29T05:50:56;3.90;;;2.97;;
5539;SDS011;2792;52.452;9.752;2023-07-29T05:53:22;6.67;;;2.73;;
5539;SDS011;2792;52.452;9.752;2023-07-29T05:55:49;2.87;;;2.67;;
5539;SDS011;2792;52.452;9.752;2023-07-29T05:58:17;3.30;;;2.40;;
5539;SDS011;2792;52.452;9.752;2023-07-29T06:00:43;3.03;;;2.83;;
5539;SDS011;2792;52.452;9.752;2023-07-29T06:03:10;2.67;;;2.47;;
5539;SDS011;2792;52.452;9.752;2023-07-29T06:05:36;3.10;;;2.70;;
5539;SDS011;2792;52.452;9.752;2023-07-29T06:08:03;3.60;;;2.40;;
5539;SDS011;2792;52.452;9.752;2023-07-29T06:10:30;3.10;;;2.80;;
5539;SDS011;2792;52.452;9.752;2023-07-29T06:12:56;2.97;;;2.77;;
5539;SDS011;2792;52.452;9.752;2023-07-29T06:15:24;3.80;;;2.47;;
5539;SDS011;2792;52.452;9.752;2023-07-29T06:17:51;2.43;;;2.30;;
5539;SDS011;2792;52.452;9.752;2023-07-29T06:20:17;2.83;;;2.63;;
5539;SDS011;2792;52.452;9.752;2023-07-29T06:22:44;3.17;;;2.60;;
5539;SDS011;2792;52.452;9.752;2023-07-29T06:25:10;3.37;;;3.07;;
5539;SDS011;2792;52.452;9.752;2023-07-29T06:27:37;4.00;;;2.63;;
5539;SDS011;2792;52.452;9.752;2023-07-29T06:30:04;3.00;;;2.70;;
5539;SDS011;2792;52.452;9.752;2023-07-29T06:32:33;3.03;;;2.83;;
5539;SDS011;2792;52.452;9.752;2023-07-29T06:35:00;2.80;;;2.60;;
5539;SDS011;2792;52.452;9.752;2023-07-29T06:37:26;3.07;;;2.87;;
5539;SDS011;2792;52.452;9.752;2023-07-29T06:39:53;4.70;;;3.43;;
5539;SDS011;2792;52.452;9.752;2023-07-29T06:42:19;5.80;;;3.07;;
5539;SDS011;2792;52.452;9.752;2023-07-29T06:44:46;2.93;;;2.63;;
5539;SDS011;2792;52.452;9.752;2023-07-29T06:47:12;3.27;;;2.97;;
5539;SDS011;2792;52.452;9.752;2023-07-29T06:49:40;3.27;;;2.97;;
5539;SDS011;2792;52.452;9.752;2023-07-29T06:52:07;4.43;;;2.50;;
5539;SDS011;2792;52.452;9.752;2023-07-29T06:54:33;2.40;;;2.30;;
5539;SDS011;2792;52.452;9.752;2023-07-29T06:57:00;2.93;;;2.50;;
5539;SDS011;2792;52.452;9.752;2023-07-29T06:59:26;2.60;;;2.40;;
5539;SDS011;2792;52.452;9.752;2023-07-29T07:01:53;4.43;;;2.47;;
5539;SDS011;2792;52.452;9.752;2023-07-29T07:04:19;4.30;;;2.57;;
5539;SDS011;2792;52.452;9.752;2023-07-29T07:06:47;2.93;;;2.20;;
5539;SDS011;2792;52.452;9.752;2023-07-29T07:09:13;2.30;;;2.20;;
5539;SDS011;2792;52.452;9.752;2023-07-29T07:11:40;3.60;;;2.40;;
5539;SDS011;2792;52.452;9.752;2023-07-29T07:14:07;2.40;;;2.20;;
5539;SDS011;2792;52.452;9.752;2023-07-29T07:16:33;2.13;;;2.03;;
5539;SDS011;2792;52.452;9.752;2023-07-29T07:19:01;2.87;;;2.60;;
5539;SDS011;2792;52.452;9.752;2023-07-29T07:21:28;2.93;;;2.33;;
5539;SDS011;2792;52.452;9.752;2023-07-29T07:23:56;1.93;;;1.83;;
5539;SDS011;2792;52.452;9.752;2023-07-29T07:26:23;5.63;;;2.13;;
5539;SDS011;2792;52.452;9.752;2023-07-29T07:28:49;2.83;;;2.13;;
5539;SDS011;2792;52.452;9.752;2023-07-29T07:31:16;2.53;;;2.33;;
5539;SDS011;2792;52.452;9.752;2023-07-29T07:33:42;5.33;;;2.20;;
5539;SDS011;2792;52.452;9.752;2023-07-29T07:36:09;2.60;;;2.40;;
5539;SDS011;2792;52.452;9.752;2023-07-29T07:38:35;2.70;;;2.30;;
5539;SDS011;2792;52.452;9.752;2023-07-29T07:41:03;2.67;;;2.47;;
5539;SDS011;2792;52.452;9.752;2023-07-29T07:43:30;2.73;;;2.53;;
5539;SDS011;2792;52.452;9.752;2023-07-29T07:46:00;3.37;;;2.60;;
5539;SDS011;2792;52.452;9.752;2023-07-29T07:48:27;2.13;;;2.00;;
5539;SDS011;2792;52.452;9.752;2023-07-29T07:50:54;2.73;;;2.53;;
5539;SDS011;2792;52.452;9.752;2023-07-29T07:53:20;6.17;;;2.47;;
5539;SDS011;2792;52.452;9.752;2023-07-29T07:55:47;2.83;;;2.53;;
5539;SDS011;2792;52.452;9.752;2023-07-29T07:58:16;2.80;;;2.60;;
5539;SDS011;2792;52.452;9.752;2023-07-29T08:00:42;2.63;;;2.43;;
5539;SDS011;2792;52.452;9.752;2023-07-29T08:03:09;3.57;;;2.03;;
5539;SDS011;2792;52.452;9.752;2023-07-29T08:05:35;2.80;;;1.90;;
5539;SDS011;2792;52.452;9.752;2023-07-29T08:08:02;2.93;;;2.20;;
5539;SDS011;2792;52.452;9.752;2023-07-29T08:10:28;2.87;;;2.43;;
5539;SDS011;2792;52.452;9.752;2023-07-29T08:12:55;2.43;;;2.33;;
5539;SDS011;2792;52.452;9.752;2023-07-29T08:15:23;3.53;;;3.20;;
5539;SDS011;2792;52.452;9.752;2023-07-29T08:17:49;2.10;;;2.00;;
5539;SDS011;2792;52.452;9.752;2023-07-29T08:20:17;2.90;;;2.60;;
5539;SDS011;2792;52.452;9.752;2023-07-29T08:22:44;4.03;;;3.20;;
5539;SDS011;2792;52.452;9.752;2023-07-29T08:25:10;4.80;;;3.33;;
5539;SDS011;2792;52.452;9.752;2023-07-29T08:27:37;5.10;;;3.70;;
5539;SDS011;2792;52.452;9.752;2023-07-29T08:30:04;3.67;;;3.37;;
5539;SDS011;2792;52.452;9.752;2023-07-29T08:32:32;3.50;;;3.20;;
5539;SDS011;2792;52.452;9.752;2023-07-29T08:34:59;3.83;;;3.33;;
5539;SDS011;2792;52.452;9.752;2023-07-29T08:37:25;4.37;;;3.67;;
5539;SDS011;2792;52.452;9.752;2023-07-29T08:39:52;4.27;;;3.90;;
5539;SDS011;2792;52.452;9.752;2023-07-29T08:42:19;4.43;;;4.03;;
5539;SDS011;2792;52.452;9.752;2023-07-29T08:44:47;5.23;;;3.90;;
5539;SDS011;2792;52.452;9.752;2023-07-29T08:47:15;3.70;;;3.40;;
5539;SDS011;2792;52.452;9.752;2023-07-29T08:49:43;4.43;;;3.40;;
5539;SDS011;2792;52.452;9.752;2023-07-29T08:52:10;3.90;;;3.50;;
5539;SDS011;2792;52.452;9.752;2023-07-29T08:54:37;4.10;;;3.70;;
5539;SDS011;2792;52.452;9.752;2023-07-29T08:57:04;3.90;;;3.60;;
5539;SDS011;2792;52.452;9.752;2023-07-29T08:59:31;5.10;;;4.20;;
5539;SDS011;2792;52.452;9.752;2023-07-29T09:01:58;3.50;;;3.30;;
5539;SDS011;2792;52.452;9.752;2023-07-29T09:04:24;4.10;;;3.70;;
5539;SDS011;2792;52.452;9.752;2023-07-29T09:06:52;3.70;;;3.30;;
5539;SDS011;2792;52.452;9.752;2023-07-29T09:09:20;3.93;;;3.63;;
5539;SDS011;2792;52.452;9.752;2023-07-29T09:11:47;4.13;;;3.83;;
5539;SDS011;2792;52.452;9.752;2023-07-29T09:14:14;4.90;;;4.20;;
5539;SDS011;2792;52.452;9.752;2023-07-29T09:16:40;11.63;;;4.40;;
5539;SDS011;2792;52.452;9.752;2023-07-29T09:19:07;8.30;;;4.23;;
5539;SDS011;2792;52.452;9.752;2023-07-29T09:21:33;5.63;;;4.40;;
5539;SDS011;2792;52.452;9.752;2023-07-29T09:24:03;7.10;;;4.23;;
5539;SDS011;2792;52.452;9.752;2023-07-29T09:26:32;6.60;;;4.50;;
5539;SDS011;2792;52.452;9.752;2023-07-29T09:28:59;5.37;;;4.50;;
5539;SDS011;2792;52.452;9.752;2023-07-29T09:31:27;6.33;;;4.10;;
5539;SDS011;2792;52.452;9.752;2023-07-29T09:33:55;4.30;;;3.90;;
5539;SDS011;2792;52.452;9.752;2023-07-29T09:36:23;4.73;;;4.33;;
5539;SDS011;2792;52.452;9.752;2023-07-29T09:38:51;4.13;;;3.83;;
5539;SDS011;2792;52.452;9.752;2023-07-29T09:41:20;4.33;;;4.03;;
5539;SDS011;2792;52.452;9.752;2023-07-29T09:43:48;5.03;;;4.63;;
5539;SDS011;2792;52.452;9.752;2023-07-29T09:46:22;5.13;;;4.73;;
5539;SDS011;2792;52.452;9.752;2023-07-29T09:48:49;6.20;;;5.53;;
5539;SDS011;2792;52.452;9.752;2023-07-29T09:51:16;6.10;;;5.23;;
5539;SDS011;2792;52.452;9.752;2023-07-29T09:53:43;5.30;;;4.80;;
5539;SDS011;2792;52.452;9.752;2023-07-29T09:56:10;7.30;;;6.57;;
5539;SDS011;2792;52.452;9.752;2023-07-29T09:58:38;7.13;;;6.43;;
5539;SDS011;2792;52.452;9.752;2023-07-29T10:01:06;7.40;;;6.70;;
5539;SDS011;2792;52.452;9.752;2023-07-29T10:03:33;8.70;;;7.07;;
5539;SDS011;2792;52.452;9.752;2023-07-29T10:06:00;7.23;;;6.53;;
5539;SDS011;2792;52.452;9.752;2023-07-29T10:08:28;7.83;;;6.77;;
5539;SDS011;2792;52.452;9.752;2023-07-29T10:10:56;8.63;;;7.50;;
5539;SDS011;2792;52.452;9.752;2023-07-29T10:13:24;8.47;;;6.60;;
5539;SDS011;2792;52.452;9.752;2023-07-29T10:15:54;8.27;;;7.47;;
5539;SDS011;2792;52.452;9.752;2023-07-29T10:18:21;7.90;;;7.10;;
5539;SDS011;2792;52.452;9.752;2023-07-29T10:20:48;7.50;;;6.80;;
5539;SDS011;2792;52.452;9.752;2023-07-29T10:23:17;8.27;;;6.47;;
5539;SDS011;2792;52.452;9.752;2023-07-29T10:25:46;8.87;;;6.47;;
5539;SDS011;2792;52.452;9.752;2023-07-29T10:28:13;6.70;;;6.10;;
5539;SDS011;2792;52.452;9.752;2023-07-29T10:30:41;5.97;;;5.37;;
5539;SDS011;2792;52.452;9.752;2023-07-29T10:33:09;7.67;;;5.33;;
5539;SDS011;2792;52.452;9.752;2023-07-29T10:35:36;5.90;;;4.50;;
5539;SDS011;2792;52.452;9.752;2023-07-29T10:38:03;5.03;;;4.57;;
5539;SDS011;2792;52.452;9.752;2023-07-29T10:40:43;3.50;;;3.20;;
5539;SDS011;2792;52.452;9.752;2023-07-29T10:43:12;3.23;;;2.93;;
5539;SDS011;2792;52.452;9.752;2023-07-29T10:45:40;3.00;;;2.80;;
5539;SDS011;2792;52.452;9.752;2023-07-29T10:48:09;3.20;;;3.00;;
5539;SDS011;2792;52.452;9.752;2023-07-29T10:50:37;3.13;;;2.93;;
5539;SDS011;2792;52.452;9.752;2023-07-29T10:53:03;3.80;;;3.50;;
5539;SDS011;2792;52.452;9.752;2023-07-29T10:55:32;4.43;;;3.40;;
5539;SDS011;2792;52.452;9.752;2023-07-29T10:58:07;3.80;;;3.30;;
5539;SDS011;2792;52.452;9.752;2023-07-29T11:00:35;3.33;;;3.03;;
5539;SDS011;2792;52.452;9.752;2023-07-29T11:03:02;3.83;;;3.53;;
5539;SDS011;2792;52.452;9.752;2023-07-29T11:05:50;3.97;;;3.67;;
5539;SDS011;2792;52.452;9.752;2023-07-29T11:08:21;4.20;;;3.70;;
5539;SDS011;2792;52.452;9.752;2023-07-29T11:10:57;3.40;;;3.10;;
5539;SDS011;2792;52.452;9.752;2023-07-29T11:13:34;5.30;;;3.33;;
5539;SDS011;2792;52.452;9.752;2023-07-29T11:16:01;3.10;;;2.63;;
5539;SDS011;2792;52.452;9.752;2023-07-29T11:18:28;3.43;;;2.40;;
5539;SDS011;2792;52.452;9.752;2023-07-29T11:20:57;2.70;;;2.50;;
5539;SDS011;2792;52.452;9.752;2023-07-29T11:23:27;2.93;;;2.60;;
5539;SDS011;2792;52.452;9.752;2023-07-29T11:25:55;2.70;;;2.50;;
5539;SDS011;2792;52.452;9.752;2023-07-29T11:28:22;2.63;;;2.43;;
5539;SDS011;2792;52.452;9.752;2023-07-29T11:30:49;3.40;;;3.00;;
5539;SDS011;2792;52.452;9.752;2023-07-29T11:33:17;2.60;;;2.40;;
5539;SDS011;2792;52.452;9.752;2023-07-29T11:35:44;2.90;;;2.47;;
5539;SDS011;2792;52.452;9.752;2023-07-29T11:38:15;3.40;;;2.40;;
5539;SDS011;2792;52.452;9.752;2023-07-29T11:40:42;2.60;;;1.87;;
5539;SDS011;2792;52.452;9.752;2023-07-29T11:43:09;2.20;;;2.00;;
5539;SDS011;2792;52.452;9.752;2023-07-29T11:45:43;2.30;;;2.10;;
5539;SDS011;2792;52.452;9.752;2023-07-29T11:48:10;1.30;;;1.20;;
5539;SDS011;2792;52.452;9.752;2023-07-29T11:50:37;1.87;;;1.60;;
5539;SDS011;2792;52.452;9.752;2023-07-29T11:53:03;0.90;;;0.90;;
5539;SDS011;2792;52.452;9.752;2023-07-29T11:55:33;2.23;;;1.10;;
5539;SDS011;2792;52.452;9.752;2023-07-29T11:57:59;1.20;;;1.10;;
5539;SDS011;2792;52.452;9.752;2023-07-29T12:00:27;1.17;;;1.07;;
5539;SDS011;2792;52.452;9.752;2023-07-29T12:02:54;0.90;;;0.90;;
5539;SDS011;2792;52.452;9.752;2023-07-29T12:05:23;1.37;;;1.10;;
5539;SDS011;2792;52.452;9.752;2023-07-29T12:07:50;1.47;;;1.00;;
5539;SDS011;2792;52.452;9.752;2023-07-29T12:10:17;2.30;;;1.23;;
5539;SDS011;2792;52.452;9.752;2023-07-29T12:12:45;1.80;;;1.50;;
5539;SDS011;2792;52.452;9.752;2023-07-29T12:15:12;1.10;;;1.00;;
5539;SDS011;2792;52.452;9.752;2023-07-29T12:17:39;3.93;;;1.00;;
5539;SDS011;2792;52.452;9.752;2023-07-29T12:20:08;2.27;;;1.00;;
5539;SDS011;2792;52.452;9.752;2023-07-29T12:22:35;2.60;;;1.23;;
5539;SDS011;2792;52.452;9.752;2023-07-29T12:25:02;1.00;;;1.00;;
5539;SDS011;2792;52.452;9.752;2023-07-29T12:27:29;1.20;;;1.10;;
5539;SDS011;2792;52.452;9.752;2023-07-29T12:29:58;0.97;;;0.87;;
5539;SDS011;2792;52.452;9.752;2023-07-29T12:32:28;2.20;;;1.20;;
5539;SDS011;2792;52.452;9.752;2023-07-29T12:34:55;1.97;;;1.20;;
5539;SDS011;2792;52.452;9.752;2023-07-29T12:37:30;4.00;;;1.10;;
5539;SDS011;2792;52.452;9.752;2023-07-29T12:39:57;1.10;;;1.00;;
5539;SDS011;2792;52.452;9.752;2023-07-29T12:42:24;1.50;;;1.40;;
5539;SDS011;2792;52.452;9.752;2023-07-29T12:44:50;1.50;;;1.23;;
5539;SDS011;2792;52.452;9.752;2023-07-29T12:47:18;1.13;;;1.03;;
5539;SDS011;2792;52.452;9.752;2023-07-29T12:49:44;1.07;;;1.00;;
5539;SDS011;2792;52.452;9.752;2023-07-29T12:52:11;1.40;;;1.30;;
5539;SDS011;2792;52.452;9.752;2023-07-29T12:54:37;1.43;;;1.20;;
5539;SDS011;2792;52.452;9.752;2023-07-29T12:57:05;2.27;;;1.10;;
5539;SDS011;2792;52.452;9.752;2023-07-29T12:59:32;1.80;;;1.40;;
5539;SDS011;2792;52.452;9.752;2023-07-29T13:01:58;1.30;;;1.20;;
5539;SDS011;2792;52.452;9.752;2023-07-29T13:04:26;3.53;;;1.40;;
5539;SDS011;2792;52.452;9.752;2023-07-29T13:06:53;1.20;;;1.07;;
5539;SDS011;2792;52.452;9.752;2023-07-29T13:09:19;2.17;;;1.00;;
5539;SDS011;2792;52.452;9.752;2023-07-29T13:11:46;3.80;;;1.50;;
5539;SDS011;2792;52.452;9.752;2023-07-29T13:14:12;1.67;;;1.40;;
5539;SDS011;2792;52.452;9.752;2023-07-29T13:16:39;1.63;;;1.30;;
5539;SDS011;2792;52.452;9.752;2023-07-29T13:19:05;1.20;;;1.10;;
5539;SDS011;2792;52.452;9.752;2023-07-29T13:21:33;1.43;;;1.23;;
5539;SDS011;2792;52.452;9.752;2023-07-29T13:24:00;1.43;;;1.23;;
5539;SDS011;2792;52.452;9.752;2023-07-29T13:26:26;1.50;;;1.20;;
5539;SDS011;2792;52.452;9.752;2023-07-29T13:28:53;6.93;;;1.30;;
5539;SDS011;2792;52.452;9.752;2023-07-29T13:31:20;1.67;;;1.10;;
5539;SDS011;2792;52.452;9.752;2023-07-29T13:33:47;1.30;;;1.10;;
5539;SDS011;2792;52.452;9.752;2023-07-29T13:36:13;1.20;;;1.10;;
5539;SDS011;2792;52.452;9.752;2023-07-29T13:38:41;1.40;;;1.30;;
5539;SDS011;2792;52.452;9.752;2023-07-29T13:41:08;4.30;;;1.30;;
5539;SDS011;2792;52.452;9.752;2023-07-29T13:43:34;1.67;;;1.13;;
5539;SDS011;2792;52.452;9.752;2023-07-29T13:46:00;1.63;;;1.20;;
5539;SDS011;2792;52.452;9.752;2023-07-29T13:48:27;1.10;;;1.10;;
5539;SDS011;2792;52.452;9.752;2023-07-29T13:50:54;1.67;;;1.20;;
5539;SDS011;2792;52.452;9.752;2023-07-29T13:53:20;1.50;;;1.40;;
5539;SDS011;2792;52.452;9.752;2023-07-29T13:55:48;1.60;;;1.43;;
5539;SDS011;2792;52.452;9.752;2023-07-29T13:58:15;3.50;;;1.93;;
5539;SDS011;2792;52.452;9.752;2023-07-29T14:00:41;2.90;;;1.47;;
5539;SDS011;2792;52.452;9.752;2023-07-29T14:03:08;1.47;;;1.37;;
5539;SDS011;2792;52.452;9.752;2023-07-29T14:05:34;2.67;;;1.30;;
5539;SDS011;2792;52.452;9.752;2023-07-29T14:08:01;1.63;;;1.37;;
5539;SDS011;2792;52.452;9.752;2023-07-29T14:10:27;1.40;;;1.30;;
5539;SDS011;2792;52.452;9.752;2023-07-29T14:12:55;1.70;;;1.33;;
5539;SDS011;2792;52.452;9.752;2023-07-29T14:15:21;1.50;;;1.40;;
5539;SDS011;2792;52.452;9.752;2023-07-29T14:17:48;1.60;;;1.50;;
5539;SDS011;2792;52.452;9.752;2023-07-29T14:20:15;2.30;;;1.40;;
5539;SDS011;2792;52.452;9.752;2023-07-29T14:22:41;2.73;;;1.53;;
5539;SDS011;2792;52.452;9.752;2023-07-29T14:25:08;2.63;;;1.90;;
5539;SDS011;2792;52.452;9.752;2023-07-29T14:27:35;2.27;;;1.83;;
5539;SDS011;2792;52.452;9.752;2023-07-29T14:30:03;4.27;;;1.50;;
5539;SDS011;2792;52.452;9.752;2023-07-29T14:32:29;2.13;;;1.43;;
5539;SDS011;2792;52.452;9.752;2023-07-29T14:34:56;2.10;;;1.30;;
5539;SDS011;2792;52.452;9.752;2023-07-29T14:37:23;1.63;;;1.30;;
5539;SDS011;2792;52.452;9.752;2023-07-29T14:39:49;3.03;;;1.27;;
5539;SDS011;2792;52.452;9.752;2023-07-29T14:42:16;1.70;;;1.30;;
5539;SDS011;2792;52.452;9.752;2023-07-29T14:44:42;1.67;;;1.57;;
5539;SDS011;2792;52.452;9.752;2023-07-29T14:47:10;2.40;;;1.97;;
5539;SDS011;2792;52.452;9.752;2023-07-29T14:49:37;2.67;;;2.47;;
5539;SDS011;2792;52.452;9.752;2023-07-29T14:52:03;2.13;;;1.80;;
5539;SDS011;2792;52.452;9.752;2023-07-29T14:54:30;1.10;;;1.00;;
5539;SDS011;2792;52.452;9.752;2023-07-29T14:56:57;1.53;;;1.43;;
5539;SDS011;2792;52.452;9.752;2023-07-29T14:59:23;2.07;;;1.70;;
5539;SDS011;2792;52.452;9.752;2023-07-29T15:01:50;1.73;;;1.57;;
5539;SDS011;2792;52.452;9.752;2023-07-29T15:04:18;1.40;;;1.30;;
5539;SDS011;2792;52.452;9.752;2023-07-29T15:06:44;1.43;;;1.30;;
5539;SDS011;2792;52.452;9.752;2023-07-29T15:09:11;1.00;;;1.00;;
5539;SDS011;2792;52.452;9.752;2023-07-29T15:11:37;1.20;;;1.10;;
5539;SDS011;2792;52.452;9.752;2023-07-29T15:14:04;2.23;;;1.40;;
5539;SDS011;2792;52.452;9.752;2023-07-29T15:16:30;1.50;;;1.40;;